createdAt,value
2018-11-06T00:00:41.828Z,99396.67
2018-11-06T00:03:16.658Z,99383.91
2018-11-06T00:05:46.651Z,99389.83
2018-11-06T00:08:17.323Z,99392.67
2018-11-06T00:10:48.068Z,99390.64
2018-11-06T00:13:18.863Z,99385.41
2018-11-06T00:15:49.638Z,99386.58
2018-11-06T00:18:19.746Z,99383.44
2018-11-06T00:20:49.953Z,99388.80
2018-11-06T00:23:20.092Z,99382.08
2018-11-06T00:25:50.182Z,99375.05
2018-11-06T00:28:19.955Z,99377.34
2018-11-06T00:30:49.879Z,99377.85
2018-11-06T00:33:20.447Z,99371.59
2018-11-06T00:35:50.220Z,99370.91
2018-11-06T00:38:20.154Z,99360.31
2018-11-06T00:40:50.810Z,99360.82
2018-11-06T00:43:20.615Z,99362.08
2018-11-06T00:45:50.369Z,99363.47
2018-11-06T00:48:20.191Z,99367.39
2018-11-06T00:50:50.218Z,99372.52
2018-11-06T00:53:20.666Z,99363.70
2018-11-06T00:55:51.117Z,99369.53
2018-11-06T00:58:20.785Z,99357.67
2018-11-06T01:00:50.511Z,99372.62
2018-11-06T01:03:20.545Z,99375.31
2018-11-06T01:05:51.520Z,99374.36
2018-11-06T01:08:21.740Z,99366.59
2018-11-06T01:10:51.855Z,99371.41
2018-11-06T01:13:22.156Z,99373.77
2018-11-06T01:15:52.276Z,99366.24
2018-11-06T01:18:22.334Z,99365.66
2018-11-06T01:20:59.725Z,99370.44
2018-11-06T01:23:29.857Z,99371.36
2018-11-06T01:25:59.885Z,99379.22
2018-11-06T01:28:29.945Z,99372.80
2018-11-06T01:31:00.355Z,99375.73
2018-11-06T01:33:30.489Z,99378.83
2018-11-06T01:36:00.895Z,99378.65
2018-11-06T01:38:30.620Z,99381.07
2018-11-06T01:41:01.194Z,99380.67
2018-11-06T01:43:31.215Z,99386.99
2018-11-06T01:46:01.504Z,99390.44
2018-11-06T01:48:31.534Z,99382.22
2018-11-06T01:51:01.763Z,99376.00
2018-11-06T01:53:31.428Z,99371.06
2018-11-06T01:56:01.250Z,99370.44
2018-11-06T01:58:30.991Z,99366.70
2018-11-06T02:01:00.736Z,99362.04
2018-11-06T02:03:30.740Z,99358.08
2018-11-06T02:06:00.530Z,99356.52
2018-11-06T02:08:30.310Z,99356.48
2018-11-06T02:11:00.106Z,99354.13
2018-11-06T02:13:29.943Z,99350.34
2018-11-06T02:15:59.788Z,99353.73
2018-11-06T02:18:30.319Z,99354.46
2018-11-06T02:21:00.804Z,99360.27
2018-11-06T02:23:30.643Z,99360.12
2018-11-06T02:26:00.679Z,99364.02
2018-11-06T02:28:30.857Z,99361.26
2018-11-06T02:31:00.949Z,99364.45
2018-11-06T02:33:30.862Z,99368.31
2018-11-06T02:36:01.462Z,99363.23
2018-11-06T02:38:31.143Z,99360.52
2018-11-06T02:41:00.930Z,99361.70
2018-11-06T02:43:30.684Z,99357.84
2018-11-06T02:46:01.239Z,99356.41
2018-11-06T02:48:31.739Z,99356.48
2018-11-06T02:51:01.741Z,99357.66
2018-11-06T02:53:31.925Z,99352.78
2018-11-06T02:56:02.211Z,99352.59
2018-11-06T02:58:32.149Z,99349.77
2018-11-06T03:01:01.999Z,99354.58
2018-11-06T03:03:37.024Z,99362.76
2018-11-06T03:06:06.805Z,99359.49
2018-11-06T03:08:36.928Z,99365.40
2018-11-06T03:11:07.196Z,99362.98
2018-11-06T03:13:37.038Z,99358.83
2018-11-06T03:16:07.465Z,99360.44
2018-11-06T03:18:37.741Z,99366.97
2018-11-06T03:21:07.571Z,99365.32
2018-11-06T03:23:37.309Z,99373.46
2018-11-06T03:26:07.259Z,99368.05
2018-11-06T03:28:36.938Z,99364.59
2018-11-06T03:31:06.742Z,99366.16
2018-11-06T03:33:37.108Z,99368.50
2018-11-06T03:36:07.212Z,99366.86
2018-11-06T03:38:37.114Z,99371.55
2018-11-06T03:41:07.174Z,99373.03
2018-11-06T03:43:37.034Z,99375.30
2018-11-06T03:46:06.972Z,99374.48
2018-11-06T03:48:36.769Z,99378.05
2018-11-06T03:51:07.470Z,99383.03
2018-11-06T03:53:37.420Z,99381.80
2018-11-06T03:56:08.767Z,99383.64
2018-11-06T03:58:38.449Z,99386.28
2018-11-06T04:01:08.489Z,99384.66
2018-11-06T04:03:41.279Z,99393.20
2018-11-06T04:06:11.636Z,99393.70
2018-11-06T04:08:41.983Z,99402.45
2018-11-06T04:11:11.828Z,99401.75
2018-11-06T04:13:41.782Z,99401.75
2018-11-06T04:16:11.520Z,99406.31
2018-11-06T04:18:41.247Z,99400.92
2018-11-06T04:21:11.002Z,99398.00
2018-11-06T04:23:40.793Z,99393.63
2018-11-06T04:26:11.303Z,99394.35
2018-11-06T04:28:41.363Z,99395.17
2018-11-06T04:31:11.199Z,99395.44
2018-11-06T04:33:40.879Z,99395.65
2018-11-06T04:36:11.717Z,99397.29
2018-11-06T04:38:41.475Z,99400.33
2018-11-06T04:41:11.204Z,99400.66
2018-11-06T04:43:41.498Z,99403.09
2018-11-06T04:46:11.193Z,99397.80
2018-11-06T04:48:40.971Z,99397.30
2018-11-06T04:51:10.810Z,99398.02
2018-11-06T04:53:41.215Z,99388.38
2018-11-06T04:56:10.986Z,99394.56
2018-11-06T04:58:40.778Z,99388.05
2018-11-06T05:01:10.571Z,99388.87
2018-11-06T05:03:45.318Z,99383.80
2018-11-06T05:06:15.750Z,99379.92
2018-11-06T05:08:45.754Z,99379.33
2018-11-06T05:11:15.780Z,99375.47
2018-11-06T05:13:45.865Z,99374.84
2018-11-06T05:16:15.825Z,99377.38
2018-11-06T05:18:45.618Z,99377.81
2018-11-06T05:21:15.348Z,99382.56
2018-11-06T05:23:45.189Z,99381.05
2018-11-06T05:26:15.059Z,99386.42
2018-11-06T05:28:44.838Z,99380.23
2018-11-06T05:31:14.566Z,99378.94
2018-11-06T05:33:44.412Z,99381.45
2018-11-06T05:36:14.148Z,99376.97
2018-11-06T05:38:43.894Z,99377.19
2018-11-06T05:41:13.730Z,99377.50
2018-11-06T05:43:43.477Z,99374.34
2018-11-06T05:46:13.400Z,99377.50
2018-11-06T05:48:43.558Z,99375.38
2018-11-06T05:51:13.405Z,99380.84
2018-11-06T05:53:44.134Z,99398.52
2018-11-06T05:56:14.307Z,99400.14
2018-11-06T05:58:44.173Z,99418.22
2018-11-06T06:01:14.314Z,99410.48
2018-11-06T06:03:45.034Z,99415.38
2018-11-06T06:06:15.546Z,99411.02
2018-11-06T06:08:46.182Z,99413.86
2018-11-06T06:11:16.348Z,99415.88
2018-11-06T06:13:46.064Z,99412.53
2018-11-06T06:16:16.294Z,99414.97
2018-11-06T06:18:46.128Z,99412.42
2018-11-06T06:21:16.248Z,99415.39
2018-11-06T06:23:46.449Z,99411.72
2018-11-06T06:26:16.537Z,99427.46
2018-11-06T06:28:46.580Z,99427.47
2018-11-06T06:31:16.549Z,99432.04
2018-11-06T06:33:46.348Z,99440.77
2018-11-06T06:36:16.153Z,99442.50
2018-11-06T06:38:46.014Z,99448.08
2018-11-06T06:41:15.813Z,99449.30
2018-11-06T06:43:45.583Z,99440.48
2018-11-06T06:46:15.402Z,99441.87
2018-11-06T06:48:45.191Z,99442.39
2018-11-06T06:51:15.191Z,99441.36
2018-11-06T06:53:44.994Z,99445.33
2018-11-06T06:56:14.933Z,99448.34
2018-11-06T06:58:45.465Z,99450.38
2018-11-06T07:01:15.263Z,99447.04
2018-11-06T07:03:45.928Z,99454.95
2018-11-06T07:06:15.983Z,99458.59
2018-11-06T07:08:45.896Z,99458.00
2018-11-06T07:11:16.172Z,99456.06
2018-11-06T07:13:46.801Z,99455.22
2018-11-06T07:16:16.572Z,99464.77
2018-11-06T07:18:47.010Z,99473.81
2018-11-06T07:21:16.830Z,99473.59
2018-11-06T07:23:46.691Z,99483.75
2018-11-06T07:26:17.371Z,99484.85
2018-11-06T07:28:47.598Z,99482.20
2018-11-06T07:31:17.917Z,99496.80
2018-11-06T07:33:47.813Z,99507.78
2018-11-06T07:36:18.424Z,99511.53
2018-11-06T07:38:48.278Z,99510.51
2018-11-06T07:41:18.805Z,99508.45
2018-11-06T07:43:48.500Z,99503.77
2018-11-06T07:46:18.306Z,99507.27
2018-11-06T07:48:48.097Z,99521.84
2018-11-06T07:51:18.150Z,99525.30
2018-11-06T07:53:47.861Z,99528.48
2018-11-06T07:56:17.843Z,99530.19
2018-11-06T07:58:47.458Z,99535.87
2018-11-06T08:01:17.865Z,99536.11
2018-11-06T08:03:47.668Z,99531.55
2018-11-06T08:06:17.600Z,99533.16
2018-11-06T08:08:48.027Z,99541.35
2018-11-06T08:11:17.801Z,99535.41
2018-11-06T08:13:48.523Z,99536.22
2018-11-06T08:16:18.372Z,99534.05
2018-11-06T08:18:48.167Z,99533.23
2018-11-06T08:21:18.172Z,99532.77
2018-11-06T08:23:48.088Z,99538.02
2018-11-06T08:26:17.805Z,99533.39
2018-11-06T08:28:47.593Z,99525.16
2018-11-06T08:31:17.750Z,99525.55
2018-11-06T08:33:47.302Z,99519.67
2018-11-06T08:36:17.157Z,99521.33
2018-11-06T08:38:46.953Z,99519.69
2018-11-06T08:41:16.797Z,99532.00
2018-11-06T08:43:46.663Z,99532.73
2018-11-06T08:46:16.363Z,99541.00
2018-11-06T08:48:46.516Z,99543.46
2018-11-06T08:51:16.367Z,99539.13
2018-11-06T08:53:46.512Z,99539.47
2018-11-06T08:56:16.741Z,99537.85
2018-11-06T08:58:46.988Z,99541.98
2018-11-06T09:01:17.010Z,99547.34
2018-11-06T09:03:47.200Z,99554.89
2018-11-06T09:06:17.410Z,99564.79
2018-11-06T09:08:47.638Z,99564.32
2018-11-06T09:11:17.757Z,99572.49
2018-11-06T09:13:48.031Z,99568.45
2018-11-06T09:16:18.508Z,99568.59
2018-11-06T09:18:49.584Z,99563.14
2018-11-06T09:21:20.368Z,99564.88
2018-11-06T09:23:50.340Z,99551.91
2018-11-06T09:26:20.413Z,99550.33
2018-11-06T09:28:50.278Z,99539.15
2018-11-06T09:31:20.594Z,99544.88
2018-11-06T09:33:50.477Z,99550.59
2018-11-06T09:36:20.413Z,99553.64
2018-11-06T09:38:50.595Z,99556.92
2018-11-06T09:41:20.474Z,99559.66
2018-11-06T09:43:51.399Z,99556.33
2018-11-06T09:46:21.214Z,99559.28
2018-11-06T09:48:51.061Z,99553.41
2018-11-06T09:51:20.905Z,99548.33
2018-11-06T09:53:51.151Z,99545.94
2018-11-06T09:56:21.105Z,99548.00
2018-11-06T09:58:51.692Z,99546.77
2018-11-06T10:01:21.757Z,99543.04
2018-11-06T10:03:52.044Z,99542.69
2018-11-06T10:06:22.006Z,99545.22
2018-11-06T10:08:51.956Z,99544.84
2018-11-06T10:11:21.826Z,99545.58
2018-11-06T10:13:52.797Z,99545.20
2018-11-06T10:16:22.640Z,99536.87
2018-11-06T10:18:53.192Z,99539.95
2018-11-06T10:21:23.044Z,99535.64
2018-11-06T10:23:53.102Z,99540.46
2018-11-06T10:26:22.953Z,99536.56
2018-11-06T10:28:53.114Z,99538.80
2018-11-06T10:31:23.013Z,99533.42
2018-11-06T10:33:53.201Z,99542.44
2018-11-06T10:36:23.027Z,99537.69
2018-11-06T10:38:53.320Z,99543.47
2018-11-06T10:41:23.142Z,99543.30
2018-11-06T10:43:53.193Z,99542.24
2018-11-06T10:46:23.840Z,99547.61
2018-11-06T10:48:54.192Z,99545.05
2018-11-06T10:51:23.996Z,99540.76
2018-11-06T10:53:54.163Z,99532.80
2018-11-06T10:56:23.942Z,99538.20
2018-11-06T10:58:54.388Z,99533.73
2018-11-06T11:01:29.758Z,99534.22
2018-11-06T11:04:04.728Z,99537.09
2018-11-06T11:06:43.604Z,99535.02
2018-11-06T11:09:13.505Z,99540.23
2018-11-06T11:11:43.303Z,99539.08
2018-11-06T11:14:13.107Z,99536.75
2018-11-06T11:16:42.892Z,99529.11
2018-11-06T11:19:13.807Z,99531.21
2018-11-06T11:21:43.656Z,99535.66
2018-11-06T11:24:13.582Z,99531.38
2018-11-06T11:26:43.508Z,99526.56
2018-11-06T11:29:20.033Z,99518.04
2018-11-06T11:31:49.936Z,99516.17
2018-11-06T11:34:19.899Z,99506.05
2018-11-06T11:36:49.742Z,99503.91
2018-11-06T11:39:19.487Z,99497.21
2018-11-06T11:41:49.228Z,99488.78
2018-11-06T11:44:18.956Z,99486.64
2018-11-06T11:46:48.820Z,99482.73
2018-11-06T11:49:18.799Z,99494.05
2018-11-06T11:51:48.767Z,99494.20
2018-11-06T11:54:19.220Z,99489.58
2018-11-06T11:56:49.194Z,99498.22
2018-11-06T11:59:19.092Z,99490.45
2018-11-06T12:01:49.107Z,99483.77
2018-11-06T12:04:19.186Z,99485.23
2018-11-06T12:06:48.961Z,99487.38
2018-11-06T12:09:18.834Z,99492.44
2018-11-06T12:11:48.895Z,99482.63
2018-11-06T12:14:18.803Z,99485.57
2018-11-06T12:16:48.535Z,99484.23
2018-11-06T12:19:18.340Z,99483.94
2018-11-06T12:21:48.140Z,99482.53
2018-11-06T12:24:18.023Z,99483.73
2018-11-06T12:26:47.761Z,99490.06
2018-11-06T12:29:17.492Z,99484.56
2018-11-06T12:31:47.339Z,99477.77
2018-11-06T12:34:17.133Z,99475.23
2018-11-06T12:36:47.158Z,99482.55
2018-11-06T12:39:17.071Z,99478.77
2018-11-06T12:41:46.961Z,99482.28
2018-11-06T12:44:16.621Z,99476.67
2018-11-06T12:46:46.467Z,99475.28
2018-11-06T12:49:16.320Z,99476.65
2018-11-06T12:51:46.879Z,99480.78
2018-11-06T12:54:16.986Z,99483.13
2018-11-06T12:56:46.963Z,99482.62
2018-11-06T12:59:16.836Z,99478.08
2018-11-06T13:01:46.681Z,99485.06
2018-11-06T13:04:17.034Z,99480.72
2018-11-06T13:06:46.965Z,99482.13
2018-11-06T13:09:16.943Z,99476.75
2018-11-06T13:11:46.802Z,99478.39
2018-11-06T13:14:16.794Z,99474.08
2018-11-06T13:16:46.825Z,99468.97
2018-11-06T13:19:17.454Z,99463.05
2018-11-06T13:21:47.304Z,99458.42
2018-11-06T13:24:17.473Z,99457.70
2018-11-06T13:26:47.323Z,99455.84
2018-11-06T13:29:17.111Z,99454.97
2018-11-06T13:31:47.036Z,99459.25
2018-11-06T13:34:16.889Z,99458.69
2018-11-06T13:36:47.108Z,99459.77
2018-11-06T13:39:17.189Z,99453.88
2018-11-06T13:41:47.084Z,99454.95
2018-11-06T13:44:17.369Z,99451.13
2018-11-06T13:46:47.519Z,99456.77
2018-11-06T13:49:17.429Z,99443.64
2018-11-06T13:51:47.159Z,99452.17
2018-11-06T13:54:17.004Z,99442.28
2018-11-06T13:56:47.024Z,99446.86
2018-11-06T13:59:17.082Z,99446.55
2018-11-06T14:01:47.365Z,99448.64
2018-11-06T14:04:17.817Z,99449.70
2018-11-06T14:06:47.755Z,99449.36
2018-11-06T14:09:17.550Z,99445.84
2018-11-06T14:11:47.398Z,99453.08
2018-11-06T14:14:17.272Z,99459.41
2018-11-06T14:16:47.087Z,99459.44
2018-11-06T14:19:16.863Z,99460.78
2018-11-06T14:21:47.036Z,99459.37
2018-11-06T14:24:16.930Z,99459.91
2018-11-06T14:26:47.636Z,99453.11
2018-11-06T14:29:17.552Z,99454.31
2018-11-06T14:31:47.617Z,99459.63
2018-11-06T14:34:18.273Z,99454.75
2018-11-06T14:36:48.822Z,99454.98
2018-11-06T14:39:18.660Z,99457.88
2018-11-06T14:41:48.734Z,99449.28
2018-11-06T14:44:18.983Z,99447.86
2018-11-06T14:46:49.224Z,99451.06
2018-11-06T14:49:19.237Z,99446.14
2018-11-06T14:51:49.222Z,99447.70
2018-11-06T14:54:19.152Z,99449.03
2018-11-06T14:56:48.980Z,99454.03
2018-11-06T14:59:18.970Z,99447.88
2018-11-06T15:01:48.834Z,99447.55
2018-11-06T15:04:18.741Z,99439.98
2018-11-06T15:06:48.699Z,99432.23
2018-11-06T15:09:18.450Z,99441.48
2018-11-06T15:11:48.371Z,99435.81
2018-11-06T15:14:19.581Z,99435.55
2018-11-06T15:16:49.580Z,99433.84
2018-11-06T15:19:19.388Z,99434.85
2018-11-06T15:21:49.154Z,99435.07
2018-11-06T15:24:18.969Z,99441.42
2018-11-06T15:26:48.864Z,99441.38
2018-11-06T15:29:18.865Z,99441.36
2018-11-06T15:31:48.688Z,99440.34
2018-11-06T15:34:18.787Z,99441.62
2018-11-06T15:36:49.164Z,99437.53
2018-11-06T15:39:19.022Z,99444.46
2018-11-06T15:41:48.956Z,99439.91
2018-11-06T15:44:18.720Z,99439.32
2018-11-06T15:46:48.457Z,99441.78
2018-11-06T15:49:18.377Z,99439.63
2018-11-06T15:51:48.209Z,99432.31
2018-11-06T15:54:18.387Z,99425.89
2018-11-06T15:56:48.227Z,99427.16
2018-11-06T15:59:18.268Z,99423.91
2018-11-06T16:01:48.241Z,99421.34
2018-11-06T16:04:18.528Z,99417.75
2018-11-06T16:06:48.248Z,99415.75
2018-11-06T16:09:18.403Z,99419.52
2018-11-06T16:11:48.221Z,99418.80
2018-11-06T16:14:18.367Z,99415.38
2018-11-06T16:16:48.270Z,99415.20
2018-11-06T16:19:18.618Z,99414.00
2018-11-06T16:21:48.345Z,99412.14
2018-11-06T16:24:18.453Z,99418.73
2018-11-06T16:26:48.191Z,99427.22
2018-11-06T16:29:18.389Z,99417.47
2018-11-06T16:31:48.168Z,99422.13
2018-11-06T16:34:18.108Z,99428.38
2018-11-06T16:36:47.886Z,99425.24
2018-11-06T16:39:18.143Z,99430.27
2018-11-06T16:41:47.936Z,99426.92
2018-11-06T16:44:17.862Z,99435.97
2018-11-06T16:46:47.822Z,99427.42
2018-11-06T16:49:17.908Z,99427.95
2018-11-06T16:51:48.280Z,99426.49
2018-11-06T16:54:18.282Z,99430.48
2018-11-06T16:56:48.156Z,99425.08
2018-11-06T16:59:18.146Z,99423.00
2018-11-06T17:01:48.040Z,99430.55
2018-11-06T17:04:17.818Z,99435.37
2018-11-06T17:06:48.373Z,99436.94
2018-11-06T17:09:18.712Z,99439.31
2018-11-06T17:11:48.647Z,99432.73
2018-11-06T17:14:18.739Z,99436.20
2018-11-06T17:16:48.747Z,99438.38
2018-11-06T17:19:18.790Z,99433.42
2018-11-06T17:21:48.634Z,99434.66
2018-11-06T17:24:18.594Z,99431.94
2018-11-06T17:26:48.349Z,99435.27
2018-11-06T17:29:18.479Z,99434.63
2018-11-06T17:31:48.280Z,99437.11
2018-11-06T17:34:18.157Z,99440.02
2018-11-06T17:36:47.982Z,99434.86
2018-11-06T17:39:18.513Z,99427.69
2018-11-06T17:41:48.296Z,99438.80
2018-11-06T17:44:18.185Z,99442.39
2018-11-06T17:46:48.036Z,99437.28
2018-11-06T17:49:17.785Z,99444.41
2018-11-06T17:51:47.729Z,99444.17
2018-11-06T17:54:17.614Z,99438.45
2018-11-06T17:56:47.467Z,99434.86
2018-11-06T17:59:17.305Z,99432.00
2018-11-06T18:01:47.152Z,99430.67
2018-11-06T18:04:17.062Z,99422.42
2018-11-06T18:06:46.843Z,99430.30
2018-11-06T18:09:16.701Z,99425.91
2018-11-06T18:11:46.641Z,99429.41
2018-11-06T18:14:16.448Z,99420.88
2018-11-06T18:16:46.267Z,99421.16
2018-11-06T18:19:16.297Z,99419.39
2018-11-06T18:21:46.172Z,99411.58
2018-11-06T18:24:15.978Z,99409.48
2018-11-06T18:26:45.894Z,99407.15
2018-11-06T18:29:15.702Z,99404.00
2018-11-06T18:31:45.722Z,99394.05
2018-11-06T18:34:15.425Z,99394.97
2018-11-06T18:36:45.242Z,99393.97
2018-11-06T18:39:15.645Z,99394.59
2018-11-06T18:41:45.520Z,99390.62
2018-11-06T18:44:15.407Z,99396.29
2018-11-06T18:46:45.320Z,99395.83
2018-11-06T18:49:15.171Z,99395.84
2018-11-06T18:51:45.083Z,99395.58
2018-11-06T18:54:14.920Z,99397.65
2018-11-06T18:56:44.771Z,99386.88
2018-11-06T18:59:14.744Z,99388.30
2018-11-06T19:01:44.642Z,99384.09
2018-11-06T19:04:14.536Z,99379.62
2018-11-06T19:06:44.461Z,99381.20
2018-11-06T19:09:14.305Z,99378.38
2018-11-06T19:11:44.110Z,99383.20
2018-11-06T19:14:13.952Z,99380.98
2018-11-06T19:16:43.898Z,99376.84
2018-11-06T19:19:13.916Z,99379.50
2018-11-06T19:21:43.794Z,99384.76
2018-11-06T19:24:14.006Z,99380.83
2018-11-06T19:26:43.776Z,99393.02
2018-11-06T19:29:13.886Z,99397.36
2018-11-06T19:31:43.878Z,99392.73
2018-11-06T19:34:13.867Z,99390.80
2018-11-06T19:36:43.821Z,99388.12
2018-11-06T19:39:14.167Z,99388.72
2018-11-06T19:41:44.386Z,99394.13
2018-11-06T19:44:14.415Z,99392.51
2018-11-06T19:46:44.389Z,99391.28
2018-11-06T19:49:14.614Z,99389.30
2018-11-06T19:51:44.659Z,99390.20
2018-11-06T19:54:14.715Z,99395.42
2018-11-06T19:56:44.675Z,99384.09
2018-11-06T19:59:14.430Z,99385.62
2018-11-06T20:01:44.381Z,99383.20
2018-11-06T20:04:14.313Z,99389.31
2018-11-06T20:06:44.283Z,99393.95
2018-11-06T20:09:14.216Z,99405.14
2018-11-06T20:11:44.162Z,99414.09
2018-11-06T20:14:14.126Z,99417.03
2018-11-06T20:16:43.972Z,99422.72
2018-11-06T20:19:14.095Z,99416.52
2018-11-06T20:21:44.165Z,99420.35
2018-11-06T20:24:14.188Z,99421.23
2018-11-06T20:26:44.524Z,99422.86
2018-11-06T20:29:14.851Z,99418.16
2018-11-06T20:31:45.085Z,99417.03
2018-11-06T20:34:15.187Z,99410.41
2018-11-06T20:36:45.054Z,99401.83
2018-11-06T20:39:15.127Z,99406.84
2018-11-06T20:41:45.152Z,99411.16
2018-11-06T20:44:15.231Z,99410.69
2018-11-06T20:46:45.205Z,99412.86
2018-11-06T20:49:15.461Z,99414.33
2018-11-06T20:51:45.518Z,99417.75
2018-11-06T20:54:15.797Z,99419.55
2018-11-06T20:56:46.013Z,99422.19
2018-11-06T20:59:16.253Z,99418.59
2018-11-06T21:01:46.260Z,99416.88
2018-11-06T21:04:16.406Z,99420.44
2018-11-06T21:06:46.417Z,99419.97
2018-11-06T21:09:16.430Z,99416.88
2018-11-06T21:11:46.492Z,99421.44
2018-11-06T21:14:16.550Z,99418.36
2018-11-06T21:16:46.798Z,99416.60
2018-11-06T21:19:17.058Z,99416.08
2018-11-06T21:21:47.218Z,99413.86
2018-11-06T21:24:17.372Z,99411.59
2018-11-06T21:26:47.450Z,99414.18
2018-11-06T21:29:17.567Z,99408.03
2018-11-06T21:31:47.625Z,99417.08
2018-11-06T21:34:17.639Z,99418.36
2018-11-06T21:36:47.721Z,99414.37
2018-11-06T21:39:17.728Z,99418.30
2018-11-06T21:41:47.655Z,99416.66
2018-11-06T21:44:17.507Z,99423.52
2018-11-06T21:46:47.387Z,99420.92
2018-11-06T21:49:17.230Z,99416.23
2018-11-06T21:51:47.200Z,99419.83
2018-11-06T21:54:17.160Z,99408.56
2018-11-06T21:56:47.060Z,99407.47
2018-11-06T21:59:16.992Z,99411.02
2018-11-06T22:01:46.806Z,99407.92
2018-11-06T22:04:16.766Z,99404.09
2018-11-06T22:06:46.715Z,99403.72
2018-11-06T22:09:16.486Z,99403.71
2018-11-06T22:11:46.959Z,99400.55
2018-11-06T22:14:16.919Z,99400.97
2018-11-06T22:16:47.033Z,99397.00
2018-11-06T22:19:16.839Z,99403.62
2018-11-06T22:21:47.260Z,99403.28
2018-11-06T22:24:17.256Z,99399.30
2018-11-06T22:26:47.498Z,99401.00
2018-11-06T22:29:17.572Z,99393.18
2018-11-06T22:31:48.061Z,99394.28
2018-11-06T22:34:18.280Z,99391.86
2018-11-06T22:36:48.324Z,99395.23
2018-11-06T22:39:18.317Z,99397.16
2018-11-06T22:41:48.627Z,99398.47
2018-11-06T22:44:18.789Z,99411.79
2018-11-06T22:46:49.156Z,99412.17
2018-11-06T22:49:19.067Z,99411.97
2018-11-06T22:51:49.516Z,99416.16
2018-11-06T22:54:20.541Z,99416.23
2018-11-06T22:56:50.667Z,99419.55
2018-11-06T22:59:20.745Z,99415.86
2018-11-06T23:01:50.808Z,99416.89
2018-11-06T23:04:20.803Z,99414.09
2018-11-06T23:06:51.688Z,99409.52
2018-11-06T23:09:21.916Z,99416.66
2018-11-06T23:11:52.155Z,99417.33
2018-11-06T23:14:21.981Z,99419.56
2018-11-06T23:16:52.456Z,99416.95
2018-11-06T23:19:22.373Z,99412.16
2018-11-06T23:21:52.840Z,99418.73
2018-11-06T23:24:22.618Z,99421.41
2018-11-06T23:26:52.853Z,99419.56
2018-11-06T23:29:22.673Z,99416.89
2018-11-06T23:31:52.836Z,99416.59
2018-11-06T23:34:22.630Z,99417.92
2018-11-06T23:36:52.776Z,99426.41
2018-11-06T23:39:22.471Z,99420.30
2018-11-06T23:41:53.057Z,99419.03
2018-11-06T23:44:22.807Z,99424.23
2018-11-06T23:46:53.069Z,99412.37
2018-11-06T23:49:22.865Z,99417.83
2018-11-06T23:51:52.949Z,99419.95
2018-11-06T23:54:22.775Z,99420.23
2018-11-06T23:56:53.319Z,99416.13
2018-11-06T23:59:23.035Z,99421.19
